Huntington Lower Village, Vermont
Current Conditions -  °F | °C
As of 4:54 AM on Thursday 27 Nov 2014 (Local Time) from KBTV Reporting Station
Light Snow Light Snow  
Wind Chill: 17°   Ceiling: 1200
Heat Index: 27°   Visibility: 8mi
Dew Point: 23°   Wind: 12mph
Humidity: 85%   Direction: 350°N
Pressure: 29.95"   Gusts: NA
Location:  44.3099°N, 72.982°W
Report Text: KBTV 270954Z 35010KT 8SM -SN BKN012 OVC045 M03/M05 A2995 RMK AO2 SLP146 P0000 T10281050
Loading
Personal Weather Stations






























Interactive Weather Map New forecast layout! Learn more

10-Day Weather Forecast

Advertisements
Track Severe Weather on mobile